Time;durP1;ratioP1;P1;durP2;ratioP2;P2;SDS_P1;SDS_P2;PMS_P1;PMS_P2;Temp;Humidity;BMP_temperature;BMP_pressure;BME280_temperature;BME280_humidity;BME280_pressure;Samples;Min_cycle;Max_cycle;Signal;HPM_P1;HPM_P2
2023/03/12 00:02:15;;;;;;;5.03;4.28;;;;;;;;;;5096859;28;20207;-68
2023/03/12 00:04:43;;;;;;;3.97;3.67;;;;;;;;;;5097527;28;20429;-68
2023/03/12 00:07:09;;;;;;;6.85;3.85;;;;;;;;;;5096189;28;20253;-68
2023/03/12 00:09:36;;;;;;;4.40;3.90;;;;;;;;;;5095941;28;20215;-67
2023/03/12 00:12:02;;;;;;;4.05;3.55;;;;;;;;;;5097252;28;20511;-67
2023/03/12 00:14:29;;;;;;;3.85;3.53;;;;;;;;;;5097454;28;20230;-67
2023/03/12 00:16:55;;;;;;;7.22;3.85;;;;;;;;;;5097277;28;20441;-67
2023/03/12 00:19:21;;;;;;;5.47;3.72;;;;;;;;;;5096888;28;20207;-67
2023/03/12 00:21:49;;;;;;;6.18;4.50;;;;;;;;;;5097664;28;20231;-67
2023/03/12 00:24:15;;;;;;;7.38;4.00;;;;;;;;;;5097776;28;20609;-68
2023/03/12 00:26:41;;;;;;;8.35;4.72;;;;;;;;;;5103695;28;20208;-67
2023/03/12 00:29:08;;;;;;;5.68;4.13;;;;;;;;;;5103638;28;20227;-67
2023/03/12 00:31:34;;;;;;;7.82;4.45;;;;;;;;;;5103762;28;20210;-68
2023/03/12 00:34:01;;;;;;;5.43;4.82;;;;;;;;;;5103859;28;20218;-67
2023/03/12 00:36:28;;;;;;;8.68;4.57;;;;;;;;;;5108964;28;20418;-67
2023/03/12 00:38:57;;;;;;;6.22;4.40;;;;;;;;;;5109439;28;20201;-67
2023/03/12 00:41:24;;;;;;;6.03;4.38;;;;;;;;;;5109593;28;20227;-67
2023/03/12 00:43:52;;;;;;;4.65;4.13;;;;;;;;;;5109743;28;20195;-67
2023/03/12 00:46:18;;;;;;;9.25;4.93;;;;;;;;;;5109586;28;20196;-67
2023/03/12 00:48:45;;;;;;;5.88;4.40;;;;;;;;;;5109492;28;20214;-67
2023/03/12 00:51:11;;;;;;;5.72;4.72;;;;;;;;;;5109692;28;20492;-68
2023/03/12 00:53:38;;;;;;;9.80;4.97;;;;;;;;;;5109423;28;20270;-67
2023/03/12 00:56:06;;;;;;;9.98;5.82;;;;;;;;;;5109475;28;20348;-67
2023/03/12 00:58:32;;;;;;;11.18;5.40;;;;;;;;;;5109311;28;20195;-67
2023/03/12 01:00:59;;;;;;;9.30;5.60;;;;;;;;;;5109364;28;20253;-67
2023/03/12 01:03:25;;;;;;;9.30;5.25;;;;;;;;;;5109396;28;20241;-67
2023/03/12 01:05:54;;;;;;;9.50;5.03;;;;;;;;;;5109325;28;20195;-67
2023/03/12 01:08:20;;;;;;;9.40;6.05;;;;;;;;;;5108922;28;20199;-67
2023/03/12 01:10:46;;;;;;;8.55;5.70;;;;;;;;;;5108963;28;20195;-67
2023/03/12 01:13:14;;;;;;;12.57;5.25;;;;;;;;;;5109285;28;20195;-67
2023/03/12 01:15:40;;;;;;;8.60;5.50;;;;;;;;;;5109451;28;20202;-67
2023/03/12 01:18:06;;;;;;;6.03;5.05;;;;;;;;;;5109172;28;20196;-67
2023/03/12 01:20:33;;;;;;;9.40;5.20;;;;;;;;;;5108873;28;20237;-67
2023/03/12 01:22:59;;;;;;;6.53;5.00;;;;;;;;;;5109037;28;20241;-67
2023/03/12 01:25:25;;;;;;;9.05;5.10;;;;;;;;;;5108855;28;20207;-67
2023/03/12 01:27:51;;;;;;;9.30;5.00;;;;;;;;;;5109526;28;20408;-67
2023/03/12 01:30:19;;;;;;;5.95;4.97;;;;;;;;;;5109004;28;20202;-67
2023/03/12 01:32:45;;;;;;;7.30;4.82;;;;;;;;;;5109305;28;20503;-67
2023/03/12 01:35:11;;;;;;;7.30;5.00;;;;;;;;;;5109083;28;20196;-67
2023/03/12 01:37:38;;;;;;;7.28;4.97;;;;;;;;;;5104976;28;20211;-67
2023/03/12 01:40:04;;;;;;;5.55;4.95;;;;;;;;;;5106051;28;20195;-67
2023/03/12 01:42:31;;;;;;;9.98;5.07;;;;;;;;;;5105795;28;20223;-67
2023/03/12 01:44:58;;;;;;;7.82;5.35;;;;;;;;;;5105733;28;20199;-67
2023/03/12 01:47:26;;;;;;;7.75;5.60;;;;;;;;;;5105799;28;20202;-67
2023/03/12 01:49:54;;;;;;;7.60;5.63;;;;;;;;;;5105402;28;20196;-67
2023/03/12 01:52:21;;;;;;;8.82;5.50;;;;;;;;;;5105626;28;20203;-67
2023/03/12 01:54:50;;;;;;;7.63;5.18;;;;;;;;;;5105524;28;20207;-67
2023/03/12 01:57:18;;;;;;;10.18;5.50;;;;;;;;;;5105368;28;20196;-67
2023/03/12 01:59:45;;;;;;;9.65;5.75;;;;;;;;;;5105297;28;20195;-67
2023/03/12 02:02:11;;;;;;;6.47;5.35;;;;;;;;;;5105239;28;20211;-67
2023/03/12 02:04:39;;;;;;;11.25;5.60;;;;;;;;;;5105322;28;20233;-67
2023/03/12 02:07:07;;;;;;;9.80;5.70;;;;;;;;;;5105258;28;20195;-68
2023/03/12 02:09:35;;;;;;;6.22;5.47;;;;;;;;;;5105097;28;20211;-67
2023/03/12 02:12:02;;;;;;;9.35;5.78;;;;;;;;;;5105106;28;20192;-67
2023/03/12 02:14:28;;;;;;;9.40;5.60;;;;;;;;;;5105372;28;20196;-67
2023/03/12 02:16:55;;;;;;;9.35;5.93;;;;;;;;;;5105565;28;20483;-67
2023/03/12 02:19:25;;;;;;;10.70;5.82;;;;;;;;;;5104475;28;20246;-67
2023/03/12 02:21:53;;;;;;;10.45;6.55;;;;;;;;;;5105263;28;20435;-67
2023/03/12 02:24:24;;;;;;;7.88;6.22;;;;;;;;;;5105274;28;20553;-67
2023/03/12 02:26:51;;;;;;;10.15;6.57;;;;;;;;;;5105026;28;20200;-67
2023/03/12 02:29:18;;;;;;;8.05;5.43;;;;;;;;;;5104512;28;20223;-67
2023/03/12 02:31:47;;;;;;;9.27;6.25;;;;;;;;;;5104736;28;20226;-67
2023/03/12 02:34:13;;;;;;;8.40;5.82;;;;;;;;;;5105087;28;20196;-67
2023/03/12 02:36:40;;;;;;;8.98;5.18;;;;;;;;;;5104901;28;20203;-67
2023/03/12 02:39:06;;;;;;;8.60;5.65;;;;;;;;;;5104438;28;20500;-67
2023/03/12 02:41:33;;;;;;;9.20;5.78;;;;;;;;;;5104658;28;20222;-67
2023/03/12 02:44:04;;;;;;;11.48;5.63;;;;;;;;;;5104541;28;20385;-67
2023/03/12 02:46:32;;;;;;;10.90;5.68;;;;;;;;;;5104573;28;20370;-67
2023/03/12 02:48:58;;;;;;;11.30;7.20;;;;;;;;;;5104314;28;20196;-67
2023/03/12 02:51:24;;;;;;;7.85;5.60;;;;;;;;;;5104231;28;20192;-67
2023/03/12 02:53:53;;;;;;;6.97;5.38;;;;;;;;;;5104637;28;20233;-67
2023/03/12 02:56:20;;;;;;;9.82;5.38;;;;;;;;;;5104166;28;20202;-67
2023/03/12 02:58:46;;;;;;;8.60;5.22;;;;;;;;;;5103980;28;20195;-67
2023/03/12 03:01:14;;;;;;;12.45;5.80;;;;;;;;;;5104513;28;20199;-67
2023/03/12 03:03:40;;;;;;;7.95;5.70;;;;;;;;;;5104412;28;20195;-67
2023/03/12 03:06:06;;;;;;;7.47;5.55;;;;;;;;;;5104225;28;20196;-67
2023/03/12 03:08:33;;;;;;;10.98;5.78;;;;;;;;;;5104082;28;20203;-67
2023/03/12 03:11:01;;;;;;;9.68;5.40;;;;;;;;;;5104294;28;20196;-67
2023/03/12 03:13:28;;;;;;;6.40;4.38;;;;;;;;;;5104111;28;20377;-67
2023/03/12 03:15:56;;;;;;;7.57;5.13;;;;;;;;;;5104149;28;20196;-67
2023/03/12 03:18:24;;;;;;;11.25;4.68;;;;;;;;;;5103957;28;20467;-67
2023/03/12 03:20:54;;;;;;;8.60;5.38;;;;;;;;;;5103848;28;20241;-67
2023/03/12 03:23:20;;;;;;;9.38;4.95;;;;;;;;;;5104078;28;20216;-67
2023/03/12 03:25:47;;;;;;;7.43;5.40;;;;;;;;;;5103878;28;20196;-67
2023/03/12 03:28:13;;;;;;;5.78;5.07;;;;;;;;;;5103365;28;20212;-67
2023/03/12 03:30:39;;;;;;;11.23;5.50;;;;;;;;;;5103665;28;20195;-67
2023/03/12 03:33:05;;;;;;;8.27;5.78;;;;;;;;;;5103205;28;20196;-67
2023/03/12 03:35:34;;;;;;;9.35;5.55;;;;;;;;;;5103263;28;20195;-67
2023/03/12 03:38:00;;;;;;;11.38;5.50;;;;;;;;;;5103320;28;20260;-67
2023/03/12 03:40:27;;;;;;;10.10;5.88;;;;;;;;;;5103081;28;20526;-67
2023/03/12 03:42:53;;;;;;;9.13;5.55;;;;;;;;;;5103113;28;20448;-68
2023/03/12 03:45:19;;;;;;;5.68;5.03;;;;;;;;;;5103281;28;20499;-68
2023/03/12 03:47:46;;;;;;;7.00;4.80;;;;;;;;;;5103068;28;20200;-67
2023/03/12 03:50:12;;;;;;;9.23;5.40;;;;;;;;;;5103160;28;20199;-67
2023/03/12 03:52:40;;;;;;;8.98;4.70;;;;;;;;;;5103241;28;20217;-67
2023/03/12 03:55:06;;;;;;;7.03;5.03;;;;;;;;;;5103381;28;20495;-69
2023/03/12 03:57:32;;;;;;;7.70;5.38;;;;;;;;;;5103442;28;20225;-69
2023/03/12 03:59:59;;;;;;;7.15;4.70;;;;;;;;;;5102796;28;20200;-67
2023/03/12 04:02:25;;;;;;;12.75;5.38;;;;;;;;;;5103528;28;20215;-66
2023/03/12 04:04:52;;;;;;;11.00;5.32;;;;;;;;;;5102547;28;20196;-67
2023/03/12 04:07:18;;;;;;;7.85;5.05;;;;;;;;;;5102988;28;20199;-67
2023/03/12 04:09:45;;;;;;;5.88;5.07;;;;;;;;;;5102682;28;20203;-67
2023/03/12 04:12:12;;;;;;;9.10;6.03;;;;;;;;;;5103048;28;20476;-67
2023/03/12 04:14:41;;;;;;;8.75;5.28;;;;;;;;;;5103014;28;20196;-67
2023/03/12 04:17:08;;;;;;;7.43;5.07;;;;;;;;;;5103005;28;20203;-67
2023/03/12 04:19:34;;;;;;;9.65;5.35;;;;;;;;;;5102699;28;20200;-67
2023/03/12 04:22:00;;;;;;;7.70;5.10;;;;;;;;;;5103087;28;20550;-69
2023/03/12 04:24:27;;;;;;;5.57;5.10;;;;;;;;;;5102836;28;20200;-67
2023/03/12 04:26:54;;;;;;;7.72;5.72;;;;;;;;;;5103042;28;20241;-67
2023/03/12 04:29:20;;;;;;;7.97;5.13;;;;;;;;;;5102528;28;20316;-69
2023/03/12 04:31:47;;;;;;;6.13;5.00;;;;;;;;;;5103203;28;20191;-67
2023/03/12 04:34:13;;;;;;;9.25;5.25;;;;;;;;;;5102991;28;20207;-67
2023/03/12 04:36:39;;;;;;;8.30;5.57;;;;;;;;;;5102755;28;20196;-67
2023/03/12 04:39:06;;;;;;;5.57;4.88;;;;;;;;;;5102329;28;20233;-67
2023/03/12 04:41:33;;;;;;;5.18;4.68;;;;;;;;;;5102395;28;20245;-67
2023/03/12 04:44:00;;;;;;;5.03;4.50;;;;;;;;;;5102420;28;20496;-69
2023/03/12 04:46:27;;;;;;;5.90;5.22;;;;;;;;;;5102802;28;20202;-67
2023/03/12 04:48:53;;;;;;;8.05;5.07;;;;;;;;;;5102327;28;20365;-67
2023/03/12 04:51:19;;;;;;;10.50;4.82;;;;;;;;;;5102718;28;20203;-69
2023/03/12 04:53:46;;;;;;;8.93;5.22;;;;;;;;;;5102354;28;20237;-67
2023/03/12 04:56:12;;;;;;;9.57;5.38;;;;;;;;;;5102551;28;20204;-67
2023/03/12 04:58:38;;;;;;;8.65;5.47;;;;;;;;;;5102151;28;20221;-67
2023/03/12 05:01:06;;;;;;;7.28;5.05;;;;;;;;;;5102433;28;20203;-67
2023/03/12 05:03:32;;;;;;;5.57;4.90;;;;;;;;;;5102583;28;20230;-67
2023/03/12 05:05:58;;;;;;;7.03;5.32;;;;;;;;;;5102649;28;20196;-67
2023/03/12 05:08:25;;;;;;;10.75;5.93;;;;;;;;;;5102182;28;20252;-67
2023/03/12 05:10:51;;;;;;;7.90;5.70;;;;;;;;;;5102307;28;20565;-67
2023/03/12 05:13:18;;;;;;;7.40;4.70;;;;;;;;;;5105712;28;20192;-67
2023/03/12 05:15:46;;;;;;;6.68;5.28;;;;;;;;;;5106224;28;20204;-67
2023/03/12 05:18:13;;;;;;;10.55;5.88;;;;;;;;;;5106342;28;20196;-67
2023/03/12 05:20:40;;;;;;;8.77;5.22;;;;;;;;;;5106180;28;20195;-67
2023/03/12 05:23:06;;;;;;;7.47;4.95;;;;;;;;;;5106143;28;20215;-69
2023/03/12 05:25:32;;;;;;;9.68;5.45;;;;;;;;;;5106344;28;20353;-69
2023/03/12 05:27:59;;;;;;;10.77;5.47;;;;;;;;;;5105755;28;20269;-69
2023/03/12 05:30:25;;;;;;;7.35;5.13;;;;;;;;;;5105689;28;20200;-70
2023/03/12 05:32:51;;;;;;;7.45;4.95;;;;;;;;;;5105971;28;20442;-68
2023/03/12 05:35:19;;;;;;;9.48;5.57;;;;;;;;;;5105930;28;20222;-68
2023/03/12 05:37:45;;;;;;;20.33;10.85;;;;;;;;;;5105940;28;20196;-69
2023/03/12 05:40:12;;;;;;;25.20;13.43;;;;;;;;;;5105419;28;20199;-69
2023/03/12 05:42:38;;;;;;;10.93;6.60;;;;;;;;;;5105646;28;20238;-70
2023/03/12 05:45:05;;;;;;;8.48;5.82;;;;;;;;;;5105463;28;20442;-70
2023/03/12 05:47:31;;;;;;;5.50;4.93;;;;;;;;;;5105415;28;20200;-68
2023/03/12 05:49:58;;;;;;;6.40;5.00;;;;;;;;;;5105254;28;20241;-70
2023/03/12 05:52:25;;;;;;;5.03;4.63;;;;;;;;;;5105664;28;20188;-68
2023/03/12 05:54:52;;;;;;;9.55;5.40;;;;;;;;;;5105350;28;20249;-68
2023/03/12 05:57:18;;;;;;;6.40;4.65;;;;;;;;;;5105085;28;20249;-68
2023/03/12 05:59:44;;;;;;;7.22;5.45;;;;;;;;;;5104990;28;20525;-70
2023/03/12 06:02:11;;;;;;;8.65;5.15;;;;;;;;;;5105180;28;20448;-69
2023/03/12 06:04:37;;;;;;;7.40;5.00;;;;;;;;;;5105199;28;20200;-70
2023/03/12 06:07:03;;;;;;;9.38;5.35;;;;;;;;;;5105211;28;20205;-70
2023/03/12 06:09:31;;;;;;;10.15;5.03;;;;;;;;;;5104695;28;20208;-70
2023/03/12 06:11:58;;;;;;;8.90;5.25;;;;;;;;;;5104739;28;20215;-69
2023/03/12 06:14:25;;;;;;;6.47;5.00;;;;;;;;;;5104658;28;20195;-69
2023/03/12 06:16:51;;;;;;;8.55;5.30;;;;;;;;;;5104978;28;20203;-69
2023/03/12 06:19:17;;;;;;;7.68;4.57;;;;;;;;;;5104427;28;20200;-70
2023/03/12 06:21:44;;;;;;;7.50;5.30;;;;;;;;;;5104907;28;20204;-70
2023/03/12 06:24:10;;;;;;;7.78;5.00;;;;;;;;;;5104649;28;20219;-70
2023/03/12 06:26:39;;;;;;;5.57;4.70;;;;;;;;;;5104973;28;20212;-70
2023/03/12 06:29:05;;;;;;;8.38;4.63;;;;;;;;;;5104500;28;20534;-69
2023/03/12 06:31:31;;;;;;;5.32;4.80;;;;;;;;;;5104560;28;20195;-70
2023/03/12 06:33:58;;;;;;;6.35;5.38;;;;;;;;;;5105133;28;20191;-70
2023/03/12 06:36:24;;;;;;;6.47;5.85;;;;;;;;;;5104725;28;20195;-71
2023/03/12 06:38:50;;;;;;;5.90;5.13;;;;;;;;;;5104113;28;20217;-69
2023/03/12 06:41:18;;;;;;;8.38;5.30;;;;;;;;;;5104771;28;20206;-69
2023/03/12 06:43:45;;;;;;;6.30;5.68;;;;;;;;;;5104900;28;20223;-70
2023/03/12 06:46:13;;;;;;;10.95;5.43;;;;;;;;;;5104149;28;20207;-69
2023/03/12 06:48:40;;;;;;;10.75;5.75;;;;;;;;;;5104186;28;20222;-69
2023/03/12 06:51:06;;;;;;;8.82;5.40;;;;;;;;;;5103998;28;20196;-69
2023/03/12 06:53:33;;;;;;;16.13;6.03;;;;;;;;;;5103969;28;20267;-69
2023/03/12 06:55:59;;;;;;;7.50;5.47;;;;;;;;;;5104132;28;20196;-69
2023/03/12 06:58:26;;;;;;;9.00;6.90;;;;;;;;;;5104016;28;20241;-69
2023/03/12 07:00:54;;;;;;;13.18;6.93;;;;;;;;;;5104127;28;20370;-69
2023/03/12 07:03:21;;;;;;;6.68;5.93;;;;;;;;;;5103902;28;20228;-69
2023/03/12 07:05:48;;;;;;;5.97;5.47;;;;;;;;;;5103878;28;20188;-69
2023/03/12 07:08:14;;;;;;;6.70;5.57;;;;;;;;;;5103568;28;20203;-69
2023/03/12 07:10:40;;;;;;;6.93;5.50;;;;;;;;;;5103593;28;20203;-69
2023/03/12 07:13:07;;;;;;;6.15;5.35;;;;;;;;;;5103979;28;20191;-69
2023/03/12 07:15:34;;;;;;;9.70;6.30;;;;;;;;;;5103686;28;20200;-69
2023/03/12 07:18:01;;;;;;;6.75;6.00;;;;;;;;;;5103740;28;20549;-70
2023/03/12 07:20:27;;;;;;;10.15;6.40;;;;;;;;;;5103452;28;20242;-69
2023/03/12 07:22:54;;;;;;;14.63;8.07;;;;;;;;;;5103371;28;20224;-69
2023/03/12 07:25:20;;;;;;;8.90;7.03;;;;;;;;;;5103300;28;20195;-69
2023/03/12 07:27:46;;;;;;;8.07;6.07;;;;;;;;;;5103568;28;20219;-69
2023/03/12 07:30:13;;;;;;;10.02;6.85;;;;;;;;;;5103486;28;20421;-69
2023/03/12 07:32:39;;;;;;;7.82;6.35;;;;;;;;;;5103635;28;20192;-69
2023/03/12 07:35:07;;;;;;;9.25;6.30;;;;;;;;;;5102680;28;20204;-69
2023/03/12 07:37:33;;;;;;;7.53;6.68;;;;;;;;;;5103317;28;20208;-69
2023/03/12 07:39:59;;;;;;;9.77;7.22;;;;;;;;;;5103337;28;20202;-69
2023/03/12 07:42:26;;;;;;;9.32;6.93;;;;;;;;;;5103460;28;20234;-69
2023/03/12 07:44:52;;;;;;;9.90;6.60;;;;;;;;;;5103230;28;20196;-69
2023/03/12 07:47:18;;;;;;;10.02;6.72;;;;;;;;;;5102938;28;20200;-70
2023/03/12 07:49:44;;;;;;;9.07;8.13;;;;;;;;;;5102622;28;20195;-70
2023/03/12 07:52:12;;;;;;;11.35;7.05;;;;;;;;;;5103195;28;20245;-70
2023/03/12 07:54:38;;;;;;;8.07;6.40;;;;;;;;;;5103454;28;20244;-69
2023/03/12 07:57:04;;;;;;;7.50;6.35;;;;;;;;;;5102768;28;20199;-69
2023/03/12 07:59:31;;;;;;;8.40;6.20;;;;;;;;;;5102883;28;20222;-69
2023/03/12 08:01:57;;;;;;;9.32;5.95;;;;;;;;;;5102877;28;20196;-69
2023/03/12 08:04:23;;;;;;;6.90;6.13;;;;;;;;;;5102899;28;20253;-69
2023/03/12 08:06:49;;;;;;;12.15;6.50;;;;;;;;;;5102871;28;20199;-69
2023/03/12 08:09:17;;;;;;;9.50;6.18;;;;;;;;;;5102947;28;20557;-69
2023/03/12 08:11:43;;;;;;;10.18;6.43;;;;;;;;;;5103017;28;20421;-70
2023/03/12 08:14:09;;;;;;;7.15;5.82;;;;;;;;;;5102983;28;20356;-69
2023/03/12 08:16:36;;;;;;;7.88;6.10;;;;;;;;;;5102748;28;20234;-69
2023/03/12 08:19:02;;;;;;;9.93;6.05;;;;;;;;;;5102605;28;20199;-70
2023/03/12 08:21:28;;;;;;;9.32;6.43;;;;;;;;;;5102881;28;20211;-70
2023/03/12 08:23:54;;;;;;;8.60;6.03;;;;;;;;;;5102889;28;20283;-70
2023/03/12 08:26:22;;;;;;;6.50;5.82;;;;;;;;;;5102884;28;20196;-69
2023/03/12 08:28:48;;;;;;;8.80;5.85;;;;;;;;;;5102610;28;20253;-69
2023/03/12 08:31:14;;;;;;;6.47;5.80;;;;;;;;;;5102559;28;20372;-70
2023/03/12 08:33:42;;;;;;;6.57;5.60;;;;;;;;;;5102535;28;20524;-69
2023/03/12 08:36:08;;;;;;;8.18;6.25;;;;;;;;;;5102916;28;20195;-69
2023/03/12 08:38:35;;;;;;;9.40;6.30;;;;;;;;;;5102586;28;20256;-69
2023/03/12 08:41:02;;;;;;;6.53;5.57;;;;;;;;;;5102558;28;20195;-69
2023/03/12 08:43:29;;;;;;;12.35;6.13;;;;;;;;;;5102502;28;20216;-70
2023/03/12 08:45:56;;;;;;;6.13;5.45;;;;;;;;;;5103739;28;20196;-69
2023/03/12 08:48:22;;;;;;;8.52;5.63;;;;;;;;;;5106275;28;20248;-70
2023/03/12 08:50:48;;;;;;;9.05;6.90;;;;;;;;;;5106887;28;20196;-69
2023/03/12 08:53:15;;;;;;;8.93;7.07;;;;;;;;;;5106950;28;20249;-69
2023/03/12 08:55:41;;;;;;;7.82;6.32;;;;;;;;;;5106902;28;20196;-69
2023/03/12 08:58:07;;;;;;;7.93;6.63;;;;;;;;;;5106210;28;20210;-69
2023/03/12 09:00:35;;;;;;;9.60;7.55;;;;;;;;;;5106483;28;20425;-69
2023/03/12 09:03:01;;;;;;;7.75;6.80;;;;;;;;;;5106725;28;20541;-69
2023/03/12 09:05:28;;;;;;;11.38;7.07;;;;;;;;;;5106605;28;20446;-69
2023/03/12 09:07:55;;;;;;;10.70;7.13;;;;;;;;;;5106167;28;20194;-69
2023/03/12 09:10:21;;;;;;;7.18;6.55;;;;;;;;;;5106103;28;20203;-69
2023/03/12 09:12:47;;;;;;;9.55;6.75;;;;;;;;;;5106862;28;20408;-69
2023/03/12 09:15:13;;;;;;;8.38;7.25;;;;;;;;;;5106258;28;20214;-69
2023/03/12 09:17:41;;;;;;;10.43;7.45;;;;;;;;;;5106826;28;20516;-69
2023/03/12 09:20:08;;;;;;;10.55;7.85;;;;;;;;;;5106373;28;20517;-69
2023/03/12 09:22:35;;;;;;;9.25;7.55;;;;;;;;;;5105985;28;20207;-69
2023/03/12 09:25:02;;;;;;;14.05;7.85;;;;;;;;;;5105852;28;20386;-69
2023/03/12 09:27:28;;;;;;;9.57;7.75;;;;;;;;;;5106132;28;20596;-69
2023/03/12 09:29:55;;;;;;;9.88;7.95;;;;;;;;;;5105842;28;20212;-69
2023/03/12 09:32:21;;;;;;;10.80;7.55;;;;;;;;;;5106544;28;20196;-62
2023/03/12 09:34:49;;;;;;;11.48;8.15;;;;;;;;;;5105758;28;20192;-62
2023/03/12 09:37:15;;;;;;;11.55;8.18;;;;;;;;;;5105673;28;20202;-62
2023/03/12 09:39:41;;;;;;;9.02;8.02;;;;;;;;;;5105286;28;20196;-62
2023/03/12 09:42:12;;;;;;;11.10;8.55;;;;;;;;;;5105458;28;20195;-62
2023/03/12 09:44:39;;;;;;;10.60;8.43;;;;;;;;;;5105541;28;20219;-62
2023/03/12 09:47:08;;;;;;;12.85;7.90;;;;;;;;;;5105544;28;20196;-62
2023/03/12 09:49:39;;;;;;;9.95;8.02;;;;;;;;;;5105035;28;20196;-62
2023/03/12 09:52:13;;;;;;;11.68;8.60;;;;;;;;;;5105345;28;20235;-61
2023/03/12 09:54:43;;;;;;;10.52;7.50;;;;;;;;;;5105142;28;20192;-62
2023/03/12 09:57:11;;;;;;;11.68;7.88;;;;;;;;;;5104641;28;20202;-62
2023/03/12 09:59:37;;;;;;;9.88;7.80;;;;;;;;;;5104916;28;20666;-62
2023/03/12 10:02:06;;;;;;;8.73;7.40;;;;;;;;;;5105109;28;20196;-62
2023/03/12 10:04:43;;;;;;;9.23;7.22;;;;;;;;;;5104829;28;20239;-62
2023/03/12 10:07:14;;;;;;;8.32;7.10;;;;;;;;;;5105037;28;20498;-62
2023/03/12 10:09:47;;;;;;;9.13;7.90;;;;;;;;;;5104880;28;20444;-62
2023/03/12 10:12:20;;;;;;;11.35;7.60;;;;;;;;;;5094358;28;20208;-62
2023/03/12 10:14:51;;;;;;;10.40;7.47;;;;;;;;;;5086919;28;20246;-62
2023/03/12 10:17:26;;;;;;;10.70;7.97;;;;;;;;;;5080104;28;20575;-62
2023/03/12 10:19:58;;;;;;;8.38;7.30;;;;;;;;;;5087556;28;20226;-63
2023/03/12 10:22:30;;;;;;;8.80;7.72;;;;;;;;;;5089911;28;20242;-62
2023/03/12 10:25:01;;;;;;;11.60;7.70;;;;;;;;;;5087677;28;20224;-62
2023/03/12 10:27:28;;;;;;;9.05;6.70;;;;;;;;;;5083767;28;20231;-60
2023/03/12 10:29:55;;;;;;;8.73;7.40;;;;;;;;;;5090525;28;20225;-60
2023/03/12 10:32:23;;;;;;;8.15;7.32;;;;;;;;;;5098600;28;20439;-60
2023/03/12 10:34:50;;;;;;;18.58;7.55;;;;;;;;;;5094698;28;20398;-61
2023/03/12 10:37:18;;;;;;;9.40;7.75;;;;;;;;;;5098689;28;20200;-60
2023/03/12 10:39:46;;;;;;;7.85;7.10;;;;;;;;;;5099682;28;20515;-60
2023/03/12 10:42:14;;;;;;;9.80;7.65;;;;;;;;;;5088313;28;20287;-61
2023/03/12 10:44:40;;;;;;;8.85;7.70;;;;;;;;;;5097566;28;20277;-63
2023/03/12 10:47:07;;;;;;;9.05;7.70;;;;;;;;;;5098538;28;20208;-60
2023/03/12 10:49:34;;;;;;;9.70;8.20;;;;;;;;;;5098092;28;20207;-61
2023/03/12 10:52:03;;;;;;;8.55;7.30;;;;;;;;;;5097519;28;20507;-61
2023/03/12 10:54:31;;;;;;;8.23;7.20;;;;;;;;;;5097219;28;20200;-62
2023/03/12 10:56:59;;;;;;;7.60;6.82;;;;;;;;;;5097564;28;20261;-62
2023/03/12 10:59:28;;;;;;;8.30;7.43;;;;;;;;;;5097172;28;20203;-62
2023/03/12 11:01:54;;;;;;;8.77;7.72;;;;;;;;;;5097385;28;20208;-62
2023/03/12 11:04:23;;;;;;;9.65;7.13;;;;;;;;;;5097224;28;20235;-62
2023/03/12 11:07:03;;;;;;;10.45;7.93;;;;;;;;;;5097235;28;20200;-61
2023/03/12 11:09:29;;;;;;;16.30;10.98;;;;;;;;;;5097778;28;20606;-61
2023/03/12 11:11:56;;;;;;;10.95;9.23;;;;;;;;;;5097778;28;20199;-62
2023/03/12 11:14:25;;;;;;;11.93;8.98;;;;;;;;;;5097534;28;20203;-62
2023/03/12 11:16:52;;;;;;;12.85;9.07;;;;;;;;;;5097657;28;20488;-62
2023/03/12 11:19:26;;;;;;;12.10;9.98;;;;;;;;;;5092294;28;20212;-62
2023/03/12 11:21:55;;;;;;;8.38;7.22;;;;;;;;;;5090559;28;20260;-61
2023/03/12 11:24:21;;;;;;;9.00;7.70;;;;;;;;;;5079587;28;20259;-61
2023/03/12 11:26:49;;;;;;;7.75;7.00;;;;;;;;;;5097192;28;20223;-61
2023/03/12 11:29:21;;;;;;;8.40;6.88;;;;;;;;;;5096979;28;20220;-61
2023/03/12 11:31:54;;;;;;;7.70;6.43;;;;;;;;;;5097593;28;20208;-61
2023/03/12 11:34:23;;;;;;;7.07;5.50;;;;;;;;;;5088121;28;20246;-61
2023/03/12 11:36:52;;;;;;;5.15;4.72;;;;;;;;;;5096693;28;20208;-62
2023/03/12 11:39:24;;;;;;;5.32;4.88;;;;;;;;;;5083383;28;20274;-61
2023/03/12 11:41:58;;;;;;;7.25;4.97;;;;;;;;;;5092575;28;20212;-61
2023/03/12 11:44:27;;;;;;;5.18;4.85;;;;;;;;;;5097680;28;20291;-61
2023/03/12 11:47:06;;;;;;;5.93;5.40;;;;;;;;;;5097159;28;20207;-62
2023/03/12 11:49:38;;;;;;;13.55;6.45;;;;;;;;;;5087198;28;20220;-61
2023/03/12 11:52:08;;;;;;;5.05;4.60;;;;;;;;;;5083166;28;20431;-61
2023/03/12 11:54:43;;;;;;;4.00;3.78;;;;;;;;;;5087793;28;20207;-61
2023/03/12 11:57:14;;;;;;;1.52;1.20;;;;;;;;;;5093819;28;20253;-61
2023/03/12 11:59:46;;;;;;;0.55;0.55;;;;;;;;;;5091632;28;20211;-60
2023/03/12 12:02:35;;;;;;;0.60;0.60;;;;;;;;;;5096158;28;20400;-61
2023/03/12 12:05:09;;;;;;;0.93;0.35;;;;;;;;;;5096516;28;20581;-61
2023/03/12 12:07:43;;;;;;;1.05;0.70;;;;;;;;;;5094988;28;20282;-61
2023/03/12 12:10:16;;;;;;;3.13;0.60;;;;;;;;;;5090183;28;20216;-61
2023/03/12 12:12:50;;;;;;;1.27;0.50;;;;;;;;;;5095787;28;20211;-60
2023/03/12 12:15:23;;;;;;;0.47;0.47;;;;;;;;;;5084401;28;20211;-60
2023/03/12 12:17:56;;;;;;;0.75;0.50;;;;;;;;;;5083819;28;20386;-61
2023/03/12 12:20:28;;;;;;;1.77;0.60;;;;;;;;;;5079382;28;20253;-60
2023/03/12 12:23:01;;;;;;;1.27;0.77;;;;;;;;;;5085933;28;20575;-60
2023/03/12 12:25:33;;;;;;;0.68;0.55;;;;;;;;;;5085445;28;20239;-61
2023/03/12 12:28:06;;;;;;;1.60;0.70;;;;;;;;;;5093996;28;20527;-60
2023/03/12 12:30:40;;;;;;;1.95;0.70;;;;;;;;;;5096741;28;20257;-61
2023/03/12 12:33:19;;;;;;;1.25;0.70;;;;;;;;;;5091879;28;20249;-60
2023/03/12 12:35:45;;;;;;;2.08;0.73;;;;;;;;;;5087369;28;20437;-61
2023/03/12 12:38:14;;;;;;;1.58;1.15;;;;;;;;;;5083043;28;20429;-61
2023/03/12 12:40:41;;;;;;;1.73;0.98;;;;;;;;;;5095793;28;20273;-61
2023/03/12 12:43:19;;;;;;;1.65;0.80;;;;;;;;;;5096007;28;20561;-61
2023/03/12 12:45:46;;;;;;;2.65;0.77;;;;;;;;;;5090158;28;20224;-62
2023/03/12 12:48:16;;;;;;;1.58;1.05;;;;;;;;;;5085911;28;20270;-61
2023/03/12 12:50:43;;;;;;;1.85;0.90;;;;;;;;;;5088566;28;20207;-61
2023/03/12 12:53:14;;;;;;;3.05;0.90;;;;;;;;;;5095787;28;20289;-61
2023/03/12 12:55:46;;;;;;;3.53;1.33;;;;;;;;;;5097018;28;20192;-61
2023/03/12 12:58:15;;;;;;;5.28;1.20;;;;;;;;;;5092853;28;20201;-61
2023/03/12 13:00:47;;;;;;;2.63;1.33;;;;;;;;;;5092917;28;20207;-61
2023/03/12 13:03:17;;;;;;;2.25;1.13;;;;;;;;;;5096752;28;20216;-62
2023/03/12 13:05:49;;;;;;;3.00;1.17;;;;;;;;;;5090515;28;20258;-61
2023/03/12 13:08:35;;;;;;;1.80;1.40;;;;;;;;;;5083705;28;20452;-61
2023/03/12 13:11:04;;;;;;;4.45;1.30;;;;;;;;;;5080871;28;20258;-61
2023/03/12 13:13:30;;;;;;;6.25;1.70;;;;;;;;;;5095825;28;20526;-61
2023/03/12 13:16:11;;;;;;;2.75;1.20;;;;;;;;;;5089899;28;20204;-62
2023/03/12 13:18:39;;;;;;;3.67;1.40;;;;;;;;;;5090268;28;20215;-62
2023/03/12 13:21:23;;;;;;;2.28;1.00;;;;;;;;;;5088077;28;20541;-61
2023/03/12 13:23:57;;;;;;;3.85;1.52;;;;;;;;;;5094629;28;20275;-61
2023/03/12 13:26:26;;;;;;;1.90;1.30;;;;;;;;;;5075522;28;20228;-61
2023/03/12 13:28:58;;;;;;;4.18;1.90;;;;;;;;;;5075679;28;20570;-61
2023/03/12 13:31:35;;;;;;;3.00;1.70;;;;;;;;;;5075862;28;20209;-61
2023/03/12 13:34:29;;;;;;;4.43;1.65;;;;;;;;;;5086986;28;20510;-61
2023/03/12 13:36:58;;;;;;;4.72;1.33;;;;;;;;;;5078780;28;20208;-60
2023/03/12 13:39:28;;;;;;;1.38;1.00;;;;;;;;;;5084471;28;20231;-60
2023/03/12 13:41:55;;;;;;;1.30;1.20;;;;;;;;;;5093740;28;20523;-61
2023/03/12 13:44:39;;;;;;;4.13;1.25;;;;;;;;;;5099081;28;20208;-60
2023/03/12 13:47:16;;;;;;;4.50;1.50;;;;;;;;;;5089219;28;20404;-60
2023/03/12 13:49:45;;;;;;;5.72;2.20;;;;;;;;;;5095144;28;20191;-61
2023/03/12 13:52:18;;;;;;;1.77;1.58;;;;;;;;;;5096144;28;20192;-60
2023/03/12 13:54:46;;;;;;;0.80;0.80;;;;;;;;;;5085620;28;20242;-59
2023/03/12 13:57:21;;;;;;;3.28;1.10;;;;;;;;;;5081451;28;20516;-60
2023/03/12 13:59:49;;;;;;;4.68;1.25;;;;;;;;;;5095159;28;20285;-61
2023/03/12 14:02:21;;;;;;;3.33;1.20;;;;;;;;;;5099528;28;20208;-60
2023/03/12 14:04:48;;;;;;;2.97;1.35;;;;;;;;;;5098976;28;20250;-60
2023/03/12 14:07:30;;;;;;;3.60;1.55;;;;;;;;;;5099142;28;20223;-60
2023/03/12 14:10:04;;;;;;;2.45;1.40;;;;;;;;;;5095756;28;20219;-61
2023/03/12 14:12:35;;;;;;;2.20;1.00;;;;;;;;;;5099715;28;20198;-60
2023/03/12 14:15:07;;;;;;;3.47;1.30;;;;;;;;;;5098984;28;20227;-60
2023/03/12 14:17:34;;;;;;;3.13;1.10;;;;;;;;;;5098867;28;20230;-61
2023/03/12 14:20:06;;;;;;;3.33;1.67;;;;;;;;;;5097989;28;20269;-63
2023/03/12 14:22:33;;;;;;;1.42;0.90;;;;;;;;;;5098473;28;20278;-62
2023/03/12 14:25:03;;;;;;;3.25;0.90;;;;;;;;;;5095666;28;20229;-61
2023/03/12 14:27:30;;;;;;;2.60;0.90;;;;;;;;;;5096456;28;20383;-60
2023/03/12 14:29:57;;;;;;;2.22;1.38;;;;;;;;;;5098801;28;20230;-61
2023/03/12 14:32:26;;;;;;;1.77;0.88;;;;;;;;;;5098761;28;20212;-61
2023/03/12 14:34:55;;;;;;;2.45;1.10;;;;;;;;;;5099170;28;20519;-61
2023/03/12 14:37:24;;;;;;;2.92;1.30;;;;;;;;;;5098445;28;20245;-61
2023/03/12 14:39:53;;;;;;;5.47;1.27;;;;;;;;;;5097689;28;20211;-59
2023/03/12 14:42:24;;;;;;;5.00;1.48;;;;;;;;;;5098148;28;20207;-60
2023/03/12 14:44:54;;;;;;;1.85;1.65;;;;;;;;;;5097766;28;20216;-60
2023/03/12 14:47:21;;;;;;;3.58;0.93;;;;;;;;;;5098330;28;20244;-60